Time;durP1;ratioP1;P1;durP2;ratioP2;P2;SDS_P1;SDS_P2;PMS_P1;PMS_P2;Temp;Humidity;BMP_temperature;BMP_pressure;BME280_temperature;BME280_humidity;BME280_pressure;Samples;Min_cycle;Max_cycle;Signal;HPM_P1;HPM_P2
2022/03/18 00:01:51;;;;;;;;;;;;;;;13.01;40.46;102068.28;5093589;28;20050;-76
2022/03/18 00:04:36;;;;;;;15.18;8.98;;;;;;;13.19;39.90;102067.47;5097341;28;19912;-76
2022/03/18 00:07:21;;;;;;;;;;;;;;;13.10;40.00;102072.78;5093194;28;20043;-76
2022/03/18 00:10:07;;;;;;;13.55;7.97;;;;;;;12.99;40.51;102071.34;5075466;28;19912;-76
2022/03/18 00:12:53;;;;;;;18.60;10.50;;;;;;;13.00;41.62;102072.16;5072223;28;20503;-77
2022/03/18 00:15:38;;;;;;;26.60;13.38;;;;;;;12.98;42.65;102068.88;5072241;28;20044;-76
2022/03/18 00:18:23;;;;;;;23.00;13.80;;;;;;;12.88;42.38;102074.50;5072230;28;20041;-76
2022/03/18 00:21:08;;;;;;;135.10;14.55;;;;;;;12.90;41.54;102075.03;5072098;28;20067;-76
2022/03/18 00:23:53;;;;;;;17.52;9.25;;;;;;;12.90;41.73;102078.56;5072641;28;20036;-76
2022/03/18 00:26:38;;;;;;;14.73;8.70;;;;;;;12.91;42.20;102071.19;5076160;28;20534;-76
2022/03/18 00:29:23;;;;;;;24.17;12.15;;;;;;;12.83;41.55;102073.50;5072366;28;20051;-76
2022/03/18 00:32:09;;;;;;;14.05;7.35;;;;;;;12.78;40.79;102079.03;5071952;28;20040;-76
2022/03/18 00:34:55;;;;;;;18.27;9.68;;;;;;;12.88;39.83;102079.97;5072085;28;20044;-76
2022/03/18 00:37:40;;;;;;;11.38;6.25;;;;;;;12.90;39.47;102083.22;5073005;28;20044;-76
2022/03/18 00:40:26;;;;;;;16.92;8.13;;;;;;;12.78;38.96;102083.69;5082809;28;20047;-76
2022/03/18 00:43:13;;;;;;;20.83;7.38;;;;;;;12.85;38.98;102078.63;5092313;28;20047;-76
2022/03/18 00:46:01;;;;;;;12.68;7.85;;;;;;;12.81;39.04;102083.88;5092307;28;20048;-76
2022/03/18 00:52:05;;;;;;;17.88;8.98;;;;;;;12.99;38.46;102081.44;5077448;28;20051;-76
2022/03/18 00:54:50;;;;;;;12.15;8.40;;;;;;;13.00;38.40;102085.81;5071754;28;20052;-76
2022/03/18 00:57:35;;;;;;;9.70;5.75;;;;;;;13.02;38.29;102083.56;5071833;28;20044;-76
2022/03/18 01:00:19;;;;;;;12.20;6.45;;;;;;;13.01;38.31;102080.03;5076899;28;20055;-76
2022/03/18 01:03:06;;;;;;;14.15;8.45;;;;;;;13.09;38.21;102086.75;5096083;28;20048;-76
2022/03/18 01:05:51;;;;;;;17.55;7.93;;;;;;;13.13;37.24;102091.34;5094253;28;20502;-76
2022/03/18 01:08:35;;;;;;;13.10;6.97;;;;;;;13.17;37.17;102086.06;5091778;28;20055;-76
2022/03/18 01:11:20;;;;;;;11.48;7.50;;;;;;;13.26;37.02;102089.75;5038411;22;20053;-75
2022/03/18 01:14:05;;;;;;;15.20;7.20;;;;;;;13.19;37.28;102083.88;5016537;28;20068;-78
2022/03/18 01:16:50;;;;;;;;;;;;;;;13.28;37.00;102088.34;5022201;28;20052;-76
2022/03/18 01:19:35;;;;;;;17.75;8.40;;;;;;;13.15;37.97;102085.59;5034034;28;19913;-76
2022/03/18 01:22:20;;;;;;;13.38;6.40;;;;;;;13.19;37.37;102087.41;5031836;28;20052;-76
2022/03/18 01:25:05;;;;;;;13.82;8.30;;;;;;;13.19;37.39;102090.16;5032046;28;20071;-77
2022/03/18 01:27:49;;;;;;;10.48;5.60;;;;;;;13.22;37.21;102091.44;5033872;28;20056;-78
2022/03/18 01:30:34;;;;;;;11.38;7.43;;;;;;;13.36;37.51;102100.50;5035801;28;20043;-77
2022/03/18 01:33:19;;;;;;;;;;;;;;;13.33;37.05;102092.91;5027739;28;20072;-77
2022/03/18 01:36:04;;;;;;;13.32;7.90;;;;;;;13.44;36.93;102086.16;5025421;28;19913;-76
2022/03/18 01:38:49;;;;;;;14.20;8.63;;;;;;;13.47;36.76;102088.28;5031620;28;20040;-75
2022/03/18 01:41:34;;;;;;;17.38;8.50;;;;;;;13.38;37.02;102087.34;5017091;28;20120;-76
2022/03/18 01:44:19;;;;;;;10.25;6.35;;;;;;;13.49;36.44;102087.97;5019555;28;20053;-74
2022/03/18 01:47:04;;;;;;;16.45;9.45;;;;;;;13.56;36.62;102091.94;5033787;28;20052;-75
2022/03/18 01:49:49;;;;;;;9.15;6.13;;;;;;;13.52;36.87;102092.84;5025281;28;20052;-76
2022/03/18 01:52:33;;;;;;;13.27;6.47;;;;;;;13.48;37.08;102094.56;5035398;28;20052;-76
2022/03/18 01:55:20;;;;;;;15.40;8.00;;;;;;;13.50;36.54;102089.59;5036150;28;20052;-76
2022/03/18 01:58:05;;;;;;;14.02;8.25;;;;;;;13.52;36.53;102088.19;5025487;28;20049;-75
2022/03/18 02:00:50;;;;;;;;;;;;;;;13.47;36.58;102091.00;5036051;28;20056;-75
2022/03/18 02:03:35;;;;;;;13.15;8.13;;;;;;;13.45;36.56;102090.50;5021659;28;19913;-77
2022/03/18 02:06:20;;;;;;;19.55;10.30;;;;;;;13.48;36.92;102087.16;5025657;28;20064;-76
2022/03/18 02:09:05;;;;;;;9.40;6.47;;;;;;;13.50;36.42;102089.59;5023962;28;20052;-76
2022/03/18 02:11:50;;;;;;;11.07;6.43;;;;;;;13.44;37.32;102085.34;5036372;28;20418;-77
2022/03/18 02:14:41;;;;;;;;;;;;;;;13.48;36.47;102087.16;5026455;28;20056;-77
2022/03/18 02:17:26;;;;;;;13.50;8.90;;;;;;;13.50;37.62;102086.88;5035654;28;19913;-74
2022/03/18 02:20:11;;;;;;;15.95;9.13;;;;;;;13.45;37.85;102086.97;5034724;28;20064;-74
2022/03/18 02:22:55;;;;;;;14.80;9.00;;;;;;;13.60;37.19;102087.50;5017097;28;20040;-75
2022/03/18 02:25:40;;;;;;;14.75;8.82;;;;;;;13.46;36.96;102088.59;5036292;28;20414;-76
2022/03/18 02:28:26;;;;;;;20.13;8.90;;;;;;;13.53;36.48;102089.81;5022206;28;20513;-76
2022/03/18 02:31:10;;;;;;;14.60;6.53;;;;;;;13.51;36.72;102080.31;5021346;28;20525;-75
2022/03/18 02:33:55;;;;;;;9.95;6.68;;;;;;;13.49;37.19;102088.78;5035233;28;20068;-74
2022/03/18 02:36:41;;;;;;;10.32;6.47;;;;;;;13.43;37.42;102097.38;5022444;28;20049;-74
2022/03/18 02:39:26;;;;;;;14.75;9.40;;;;;;;13.35;37.53;102093.44;5021219;28;20048;-76
2022/03/18 02:42:10;;;;;;;13.77;8.82;;;;;;;13.37;37.68;102101.31;5035933;28;20683;-78
2022/03/18 02:44:55;;;;;;;;;;;;;;;13.36;37.58;102110.63;5036352;28;20060;-78
2022/03/18 02:47:40;;;;;;;14.85;8.57;;;;;;;13.47;37.62;102121.06;5035764;28;20313;-78
2022/03/18 02:50:25;;;;;;;11.88;6.43;;;;;;;13.54;37.51;102107.03;5035730;28;20044;-75
2022/03/18 02:53:10;;;;;;;17.38;9.02;;;;;;;13.51;37.92;102102.94;5035065;28;20402;-75
2022/03/18 02:55:55;;;;;;;16.77;8.38;;;;;;;13.47;37.69;102107.41;5020483;28;20056;-76
2022/03/18 02:58:40;;;;;;;13.95;8.73;;;;;;;13.41;37.77;102110.53;5035447;28;20045;-78
2022/03/18 03:01:25;;;;;;;14.23;9.18;;;;;;;13.43;37.73;102111.84;5022500;28;20048;-78
2022/03/18 03:04:13;;;;;;;12.80;8.95;;;;;;;13.33;38.01;102114.75;5034688;28;20044;-78
2022/03/18 03:10:01;;;;;;;14.20;8.98;;;;;;;13.33;37.95;102109.28;5021652;28;20053;-78
2022/03/18 03:12:46;;;;;;;14.35;8.82;;;;;;;13.45;37.84;102108.84;5019642;28;20544;-77
2022/03/18 03:15:31;;;;;;;11.25;7.15;;;;;;;13.35;37.86;102109.00;5034609;28;20053;-78
2022/03/18 03:18:16;;;;;;;9.32;6.80;;;;;;;13.26;38.52;102112.41;5034790;28;20060;-77
2022/03/18 03:21:01;;;;;;;;;;;;;;;13.48;37.74;102117.22;5019896;28;20048;-75
2022/03/18 03:23:47;;;;;;;16.02;9.15;;;;;;;13.43;38.29;102121.97;5023263;28;19913;-75
2022/03/18 03:26:33;;;;;;;15.05;10.43;;;;;;;13.44;38.32;102120.88;5033886;28;20048;-76
2022/03/18 03:29:18;;;;;;;;;;;;;;;13.43;38.20;102124.69;5034120;28;20049;-76
2022/03/18 03:32:03;;;;;;;16.00;9.77;;;;;;;13.39;38.23;102124.50;5037364;28;19913;-78
2022/03/18 03:34:47;;;;;;;17.17;8.10;;;;;;;13.43;38.32;102136.44;5033883;28;20060;-77
2022/03/18 03:37:32;;;;;;;13.57;7.75;;;;;;;13.49;38.56;102137.16;5019321;28;20043;-74
2022/03/18 03:40:18;;;;;;;;;;;;;;;13.31;38.68;102136.09;5022620;28;20052;-75
2022/03/18 03:43:02;;;;;;;21.98;10.93;;;;;;;13.32;38.44;102142.38;5033510;28;19917;-75
2022/03/18 03:45:47;;;;;;;20.60;11.85;;;;;;;13.11;38.92;102144.59;5033310;28;20044;-78
2022/03/18 03:48:32;;;;;;;18.60;11.25;;;;;;;13.17;39.16;102140.69;5023337;28;20042;-77
2022/03/18 03:51:16;;;;;;;18.15;10.88;;;;;;;13.23;39.08;102150.44;5019197;28;20053;-77
2022/03/18 03:54:01;;;;;;;15.65;8.90;;;;;;;13.34;38.90;102145.63;5019326;28;20112;-76
2022/03/18 03:56:46;;;;;;;16.52;11.75;;;;;;;13.29;39.02;102154.72;5023297;28;20070;-75
2022/03/18 03:59:30;;;;;;;14.40;8.88;;;;;;;13.28;39.03;102158.56;5033000;28;20402;-76
2022/03/18 04:02:15;;;;;;;12.82;8.48;;;;;;;13.29;39.19;102154.72;5033273;28;20509;-75
2022/03/18 04:05:00;;;;;;;16.85;9.65;;;;;;;13.21;39.51;102155.38;5033034;28;20056;-76
2022/03/18 04:07:44;;;;;;;;;;;;;;;13.28;39.05;102153.09;5033187;28;20060;-77
2022/03/18 04:10:29;;;;;;;;;;;;;;;13.24;39.09;102165.72;5015640;28;19913;-76
2022/03/18 04:13:13;;;;;;;;;;;;;;;13.16;39.36;102161.75;5012665;28;19913;-77
2022/03/18 04:15:58;;;;;;;;;;;;;;;13.19;39.32;102166.63;5016759;28;20282;-77
2022/03/18 04:18:42;;;;;;;;;;;;;;;13.14;39.30;102166.72;5033697;28;19913;-78
2022/03/18 04:21:26;;;;;;;;;;;;;;;13.14;39.55;102166.72;5032703;28;19913;-81
2022/03/18 04:24:11;;;;;;;;;;;;;;;13.12;39.48;102174.38;5032871;28;20286;-80
2022/03/18 04:26:55;;;;;;;;;;;;;;;13.12;40.54;102170.81;5032627;28;19920;-78
2022/03/18 04:29:39;;;;;;;;;;;;;;;13.16;39.40;102171.84;5032624;28;20393;-78
2022/03/18 04:32:24;;;;;;;;;;;;;;;13.18;38.92;102169.66;5022637;28;19912;-76
2022/03/18 04:35:09;;;;;;;;;;;;;;;13.28;38.56;102177.69;5032704;28;19912;-76
2022/03/18 04:37:54;;;;;;;;;;;;;;;13.25;38.33;102178.28;5018635;28;19913;-76
2022/03/18 04:40:39;;;;;;;;;;;;;;;13.19;38.41;102182.19;5020406;28;19912;-78
2022/03/18 04:43:24;;;;;;;;;;;;;;;13.22;38.28;102181.59;5032838;28;20294;-77
2022/03/18 04:46:09;;;;;;;;;;;;;;;13.18;38.52;102186.84;5018766;28;19912;-75
2022/03/18 04:48:53;;;;;;;;;;;;;;;13.16;38.30;102193.69;5022016;28;19917;-76
2022/03/18 04:51:38;;;;;;;;;;;;;;;13.12;38.36;102189.94;5032681;28;19917;-77
2022/03/18 04:54:22;;;;;;;;;;;;;;;13.12;38.03;102195.41;5019264;28;19916;-78
2022/03/18 04:57:16;;;;;;;;;;;;;;;13.11;38.23;102193.75;5023172;28;19913;-74
2022/03/18 05:00:00;;;;;;;;;;;;;;;13.16;37.94;102188.25;5020479;28;20301;-78
2022/03/18 05:02:45;;;;;;;;;;;;;;;13.18;37.71;102186.84;5032580;28;19913;-76
2022/03/18 05:05:29;;;;;;;;;;;;;;;13.17;37.67;102189.88;5036726;28;19913;-76
2022/03/18 05:08:14;;;;;;;;;;;;;;;13.15;37.39;102192.91;5031857;28;19917;-76
2022/03/18 05:10:58;;;;;;;;;;;;;;;13.09;37.35;102198.72;5018863;28;20297;-76
2022/03/18 05:13:44;;;;;;;;;;;;;;;13.01;38.05;102193.91;5022856;28;19917;-77
2022/03/18 05:16:29;;;;;;;;;;;;;;;13.07;37.21;102200.91;5021444;28;19921;-76
2022/03/18 05:19:13;;;;;;;;;;;;;;;13.05;37.41;102203.97;5031848;28;19917;-75
2022/03/18 05:21:58;;;;;;;;;;;;;;;13.06;37.17;102204.75;5020134;28;19917;-76
2022/03/18 05:24:42;;;;;;;;;;;;;;;13.00;37.49;102204.03;5038946;28;19913;-76
2022/03/18 05:27:27;;;;;;;;;;;;;;;13.06;36.89;102202.00;5023350;28;19917;-77
2022/03/18 05:30:14;;;;;;;;;;;;;;;13.03;37.22;102208.91;5035394;28;19921;-76
2022/03/18 05:32:59;;;;;;;;;;;;;;;12.98;37.01;102205.41;5036092;28;19913;-77
2022/03/18 05:35:44;;;;;;;;;;;;;;;13.05;36.75;102211.34;5040657;28;19913;-76
2022/03/18 05:38:28;;;;;;;;;;;;;;;13.03;37.14;102214.34;5020511;28;19912;-79
2022/03/18 05:41:13;;;;;;;;;;;;;;;13.02;37.23;102220.91;5031712;28;19913;-77
2022/03/18 05:43:57;;;;;;;;;;;;;;;13.03;37.27;102214.34;5033095;28;19917;-79
2022/03/18 05:46:41;;;;;;;;;;;;;;;13.00;37.33;102211.41;5035826;28;19912;-78
2022/03/18 05:49:26;;;;;;;;;;;;;;;12.96;37.55;102208.44;5026839;28;19917;-79
2022/03/18 05:52:10;;;;;;;;;;;;;;;12.97;37.37;102211.97;5034169;28;19912;-79
2022/03/18 05:54:55;;;;;;;;;;;;;;;12.93;37.49;102221.88;5023383;28;20373;-77
2022/03/18 05:57:39;;;;;;;;;;;;;;;12.89;37.79;102223.56;5036080;28;20321;-78
2022/03/18 06:00:24;;;;;;;;;;;;;;;12.96;37.67;102218.53;5025699;28;19913;-78
2022/03/18 06:03:08;;;;;;;;;;;;;;;12.96;37.55;102221.28;5034092;28;19913;-78
2022/03/18 06:05:53;;;;;;;;;;;;;;;13.00;37.64;102222.34;5026909;28;19913;-78
2022/03/18 06:11:51;;;;;;;;;;;;;;;13.08;37.89;102225.22;5036354;28;19914;-78
2022/03/18 06:14:36;;;;;;;;;;;;;;;13.00;38.12;102228.59;5025220;28;19916;-77
2022/03/18 06:17:20;;;;;;;;;;;;;;;12.95;39.18;102233.31;5023777;28;19912;-77
2022/03/18 06:20:05;;;;;;;;;;;;;;;12.90;38.27;102234.19;5034981;28;19913;-76
2022/03/18 06:22:49;;;;;;;;;;;;;;;12.84;38.54;102227.19;5024699;28;19925;-76
2022/03/18 06:25:34;;;;;;;;;;;;;;;12.85;38.49;102232.34;5035559;28;19913;-77
2022/03/18 06:28:18;;;;;;;;;;;;;;;12.87;38.70;102234.78;5022694;28;20314;-80
2022/03/18 06:31:03;;;;;;;;;;;;;;;12.91;38.88;102232.25;5024246;28;19913;-80
2022/03/18 06:33:48;;;;;;;;;;;;;;;12.89;38.93;102238.03;5022762;28;19912;-76
2022/03/18 06:36:33;;;;;;;;;;;;;;;12.93;38.87;102235.53;5044218;28;19913;-77
2022/03/18 06:39:19;;;;;;;;;;;;;;;12.97;39.24;102240.09;5034262;28;19917;-77
2022/03/18 06:42:04;;;;;;;;;;;;;;;13.00;38.97;102242.25;5035590;28;20289;-77
2022/03/18 06:44:49;;;;;;;;;;;;;;;13.19;38.56;102237.66;5021166;28;19913;-77
2022/03/18 06:47:34;;;;;;;;;;;;;;;12.98;38.50;102244.47;5035280;28;19913;-77
2022/03/18 06:50:18;;;;;;;;;;;;;;;13.05;38.50;102247.66;5034727;28;19917;-78
2022/03/18 06:53:02;;;;;;;;;;;;;;;13.07;38.66;102259.09;5021708;28;19913;-78
2022/03/18 06:55:47;;;;;;;;;;;;;;;13.09;39.02;102254.16;5036021;28;19913;-76
2022/03/18 06:58:32;;;;;;;;;;;;;;;13.07;39.43;102256.34;5035214;28;19913;-77
2022/03/18 07:01:16;;;;;;;;;;;;;;;13.12;38.86;102252.75;5021256;28;19913;-76
2022/03/18 07:04:01;;;;;;;;;;;;;;;13.14;39.13;102256.03;5021221;28;20405;-78
2022/03/18 07:06:46;;;;;;;;;;;;;;;13.15;38.62;102255.75;5024660;28;19913;-78
2022/03/18 07:09:31;;;;;;;;;;;;;;;13.11;38.14;102256.56;5035455;28;19916;-78
2022/03/18 07:12:16;;;;;;;;;;;;;;;13.14;39.15;102262.31;5059217;22;19920;-75
2022/03/18 07:15:01;;;;;;;;;;;;;;;13.12;39.35;102263.69;5072783;28;19920;-76
2022/03/18 07:18:02;;;;;;;;;;;;;;;13.07;38.92;102263.72;5060725;28;20278;-75
2022/03/18 07:20:47;;;;;;;;;;;;;;;13.11;39.46;102267.50;5073814;28;19912;-75
2022/03/18 07:23:31;;;;;;;;;;;;;;;13.16;38.86;102264.72;5078553;28;19916;-76
2022/03/18 07:26:16;;;;;;;;;;;;;;;13.21;39.04;102267.38;5073787;28;20323;-76
2022/03/18 07:29:04;;;;;;;;;;;;;;;13.17;38.82;102278.09;5074632;28;19920;-76
2022/03/18 07:31:51;;;;;;;;;;;;;;;13.22;39.10;102271.75;5073730;28;20359;-76
2022/03/18 07:34:35;;;;;;;;;;;;;;;13.25;39.23;102273.91;5073702;28;19912;-75
2022/03/18 07:37:20;;;;;;;;;;;;;;;13.37;39.00;102271.53;5073755;28;19916;-75
2022/03/18 07:40:05;;;;;;;;;;;;;;;13.41;39.57;102277.22;5072104;28;19939;-74
2022/03/18 07:42:51;;;;;;;;;;;;;;;13.41;39.33;102277.22;5052950;28;19916;-75
2022/03/18 07:45:36;;;;;;;;;;;;;;;13.53;39.36;102281.13;5052675;28;19913;-76
2022/03/18 07:48:26;;;;;;;;;;;;;;;13.58;38.32;102278.31;5053059;28;19916;-76
2022/03/18 07:51:11;;;;;;;;;;;;;;;13.60;38.60;102278.84;5042485;28;19917;-76
2022/03/18 07:53:56;;;;;;;;;;;;;;;13.70;38.65;102286.88;5053081;28;19913;-75
2022/03/18 07:56:41;;;;;;;;;;;;;;;13.78;38.14;102284.56;5053309;28;20322;-75
2022/03/18 07:59:26;;;;;;;;;;;;;;;13.84;39.01;102281.44;5053214;28;19913;-76
2022/03/18 08:02:10;;;;;;;;;;;;;;;13.93;39.09;102296.06;5053107;28;19912;-75
2022/03/18 08:04:55;;;;;;;;;;;;;;;14.06;38.62;102299.97;5038573;28;19912;-75
2022/03/18 08:07:42;;;;;;;;;;;;;;;14.11;37.17;102294.41;5040157;28;19913;-75
2022/03/18 08:10:27;;;;;;;;;;;;;;;14.12;36.69;102299.56;5052763;28;20158;-74
2022/03/18 08:13:11;;;;;;;;;;;;;;;14.20;36.01;102305.47;5038399;28;19916;-72
2022/03/18 08:15:56;;;;;;;;;;;;;;;14.32;36.32;102301.16;5052558;28;19912;-73
2022/03/18 08:18:40;;;;;;;;;;;;;;;14.31;36.53;102305.00;5040461;28;20319;-71
2022/03/18 08:21:25;;;;;;;;;;;;;;;14.38;35.79;102308.16;5052685;28;19913;-72
2022/03/18 08:24:09;;;;;;;;;;;;;;;14.42;34.64;102308.38;5052708;28;19917;-73
2022/03/18 08:26:54;;;;;;;;;;;;;;;14.43;34.29;102305.31;5052542;28;19912;-73
2022/03/18 08:29:38;;;;;;;;;;;;;;;14.49;33.77;102306.03;5052425;28;20287;-74
2022/03/18 08:32:25;;;;;;;;;;;;;;;14.46;34.18;102315.69;5052814;28;19913;-73
2022/03/18 08:35:09;;;;;;;;;;;;;;;14.54;34.98;102314.97;5052577;28;20516;-73
2022/03/18 08:37:56;;;;;;;;;;;;;;;14.54;33.35;102325.13;5052513;28;19913;-75
2022/03/18 08:40:41;;;;;;;;;;;;;;;14.51;34.08;102318.34;5042654;28;19912;-74
2022/03/18 08:43:27;;;;;;;;;;;;;;;14.41;33.80;102318.53;5052498;28;19913;-75
2022/03/18 08:46:11;;;;;;;;;;;;;;;14.49;33.74;102311.53;5038861;28;19917;-74
2022/03/18 08:48:58;;;;;;;;;;;;;;;14.47;34.44;102316.50;5037508;28;19917;-74
2022/03/18 08:51:42;;;;;;;;;;;;;;;14.49;33.94;102317.00;5052267;28;19913;-74
2022/03/18 08:54:26;;;;;;;;;;;;;;;14.53;33.75;102331.69;5052285;28;19913;-74
2022/03/18 08:57:11;;;;;;;;;;;;;;;14.55;33.64;102330.28;5040567;28;19921;-74
2022/03/18 08:59:56;;;;;;;;;;;;;;;14.52;34.01;102330.09;5051370;28;19913;-74
2022/03/18 09:02:41;;;;;;;;;;;;;;;14.53;34.76;102335.25;5052085;28;20326;-74
2022/03/18 09:05:25;;;;;;;;;;;;;;;14.59;34.35;102335.97;5047932;28;19912;-74
2022/03/18 09:08:10;;;;;;;;;;;;;;;14.60;34.20;102343.06;5048842;28;20280;-73
2022/03/18 09:10:54;;;;;;;;;;;;;;;14.53;33.92;102342.66;5052336;28;19917;-73
2022/03/18 09:13:39;;;;;;;;;;;;;;;14.55;34.56;102341.25;5038468;28;19913;-73
2022/03/18 09:16:23;;;;;;;;;;;;;;;14.48;34.08;102349.03;5052637;28;19913;-73
2022/03/18 09:19:08;;;;;;;;;;;;;;;14.49;34.27;102347.91;5052336;28;19913;-72
2022/03/18 09:21:52;;;;;;;;;;;;;;;14.53;34.02;102356.34;5052122;28;19916;-73
2022/03/18 09:24:37;;;;;;;;;;;;;;;14.51;34.51;102355.84;5051561;28;19916;-73
2022/03/18 09:27:22;;;;;;;;;;;;;;;14.50;34.81;102346.81;5051869;28;19913;-73
2022/03/18 09:30:08;;;;;;;;;;;;;;;14.55;35.38;102352.19;5038627;28;19917;-73
2022/03/18 09:32:52;;;;;;;;;;;;;;;14.58;35.31;102366.41;5052015;28;19913;-73
2022/03/18 09:35:37;;;;;;;;;;;;;;;14.55;34.86;102367.81;5051825;28;19912;-72
2022/03/18 09:38:22;;;;;;;;;;;;;;;14.46;35.50;102361.41;5051994;28;19913;-72
2022/03/18 09:41:07;;;;;;;;;;;;;;;14.52;34.86;102357.47;5051617;28;19912;-72
2022/03/18 09:43:51;;;;;;;;;;;;;;;14.40;34.90;102368.06;5051641;28;19985;-72
2022/03/18 09:46:37;;;;;;;;;;;;;;;14.34;34.65;102361.84;5051667;28;19913;-73
2022/03/18 09:49:22;;;;;;;;;;;;;;;14.24;33.46;102367.50;5051409;28;19917;-74
2022/03/18 09:52:06;;;;;;;;;;;;;;;14.12;33.98;102361.66;5040295;28;19912;-73
2022/03/18 09:54:51;;;;;;;;;;;;;;;14.15;33.96;102372.03;5051736;28;19917;-73
2022/03/18 09:57:36;;;;;;;;;;;;;;;14.19;34.75;102369.50;5051552;28;19912;-74
2022/03/18 10:00:20;;;;;;;;;;;;;;;14.24;34.75;102370.22;5051558;28;20434;-75
2022/03/18 10:03:11;;;;;;;;;;;;;;;14.24;33.71;102367.50;5051596;28;19913;-75
2022/03/18 10:05:58;;;;;;;;;;;;;;;14.24;34.13;102366.69;5036795;28;19916;-75
2022/03/18 10:08:42;;;;;;;;;;;;;;;14.22;33.65;102372.44;5054333;28;19913;-72
2022/03/18 10:11:28;;;;;;;;;;;;;;;14.31;33.39;102373.41;5055100;28;19921;-72
2022/03/18 10:14:20;;;;;;;;;;;;;;;14.36;33.70;102376.09;5040050;28;20395;-72
2022/03/18 10:17:08;;;;;;;;;;;;;;;14.38;33.32;102384.78;5049549;28;19921;-72
2022/03/18 10:19:52;;;;;;;;;;;;;;;14.38;33.12;102382.06;5054042;28;19912;-72
2022/03/18 10:22:37;;;;;;;;;;;;;;;14.32;33.47;102388.72;5053914;28;19917;-73
2022/03/18 10:25:32;;;;;;;;;;;;;;;14.31;33.76;102380.78;5043904;28;19913;-72
2022/03/18 10:28:40;;;;;;;;;;;;;;;14.29;33.55;102392.03;5054976;28;20360;-75
2022/03/18 10:31:25;;;;;;;;;;;;;;;14.44;34.08;102386.34;5053885;28;19917;-74
2022/03/18 10:37:14;;;;;;;;;;;;;;;14.62;34.05;102390.13;5034771;28;19916;-74
2022/03/18 10:40:00;;;;;;;;;;;;;;;14.70;34.00;102391.34;5049620;28;19912;-75
2022/03/18 10:42:57;;;;;;;;;;;;;;;14.70;34.05;102394.91;5054546;28;19912;-75
2022/03/18 10:45:57;;;;;;;;;;;;;;;14.62;33.21;102403.00;5054792;28;20367;-75
2022/03/18 10:48:59;;;;;;;;;;;;;;;14.59;34.21;102400.84;5054455;28;19913;-76
2022/03/18 10:51:44;;;;;;;;;;;;;;;14.57;33.04;102403.09;5052931;28;19920;-74
2022/03/18 10:54:29;;;;;;;;;;;;;;;14.48;32.84;102403.78;5043956;28;20298;-74
2022/03/18 10:57:17;;;;;;;;;;;;;;;14.42;32.32;102407.75;5054627;28;19912;-74
2022/03/18 11:00:01;;;;;;;;;;;;;;;14.41;32.22;102411.56;5053852;28;19917;-75
2022/03/18 11:02:48;;;;;;;;;;;;;;;14.36;32.56;102410.81;5054162;28;19913;-73
2022/03/18 11:05:35;;;;;;;;;;;;;;;14.27;32.14;102407.97;5054583;28;19912;-74
2022/03/18 11:08:23;;;;;;;;;;;;;;;14.17;32.11;102410.03;5054216;28;19916;-72
2022/03/18 11:11:14;;;;;;;;;;;;;;;14.26;32.43;102406.31;5052266;28;19917;-73
2022/03/18 11:14:20;;;;;;;;;;;;;;;14.25;32.47;102415.66;5053738;28;19913;-72
2022/03/18 11:17:08;;;;;;;;;;;;;;;14.26;33.16;102405.50;5052168;28;19913;-72
2022/03/18 11:19:53;;;;;;;;;;;;;;;14.28;32.57;102406.81;5053008;28;20368;-72
2022/03/18 11:22:39;;;;;;;;;;;;;;;14.32;32.79;102405.13;5051255;28;20359;-72
2022/03/18 11:25:25;;;;;;;;;;;;;;;14.30;31.91;102396.41;5049178;28;19913;-72
2022/03/18 11:28:14;;;;;;;;;;;;;;;14.20;31.90;102395.75;5052105;28;19913;-72
2022/03/18 11:31:03;;;;;;;;;;;;;;;14.22;32.08;102397.06;5050870;28;19917;-73
2022/03/18 11:34:07;;;;;;;;;;;;;;;14.06;31.39;102395.72;5051604;28;19912;-73
2022/03/18 11:37:06;;;;;;;;;;;;;;;14.09;31.25;102395.91;5053121;28;19912;-74
2022/03/18 11:40:13;;;;;;;;;;;;;;;14.01;31.56;102407.53;5033328;28;19913;-75
2022/03/18 11:42:57;;;;;;;;;;;;;;;13.99;32.05;102392.53;5036591;28;19913;-72
2022/03/18 11:45:42;;;;;;;;;;;;;;;14.25;33.11;102407.44;5045030;28;19916;-72
2022/03/18 11:48:37;;;;;;;;;;;;;;;14.38;32.45;102401.22;5044854;28;20439;-72
2022/03/18 11:51:24;;;;;;;;;;;;;;;14.43;32.46;102397.56;5053242;28;19920;-72
2022/03/18 11:54:27;;;;;;;;;;;;;;;14.44;32.16;102400.03;5053334;28;20299;-72
2022/03/18 11:57:27;;;;;;;;;;;;;;;14.64;32.88;102403.50;5053152;28;19916;-72
2022/03/18 12:00:33;;;;;;;;;;;;;;;14.48;32.32;102403.78;5053155;28;20299;-73
2022/03/18 12:03:21;;;;;;;;;;;;;;;14.61;33.39;102398.66;5053171;28;20368;-72
2022/03/18 12:06:07;;;;;;;;;;;;;;;14.74;34.36;102403.31;5053255;28;19932;-71
2022/03/18 12:08:52;;;;;;;;;;;;;;;14.67;34.04;102400.19;5053247;28;19912;-72
2022/03/18 12:11:39;;;;;;;;;;;;;;;14.67;33.20;102402.91;5052867;28;19917;-72
2022/03/18 12:14:26;;;;;;;;;;;;;;;14.59;32.81;102395.38;5052938;28;19913;-72
2022/03/18 12:17:12;;;;;;;;;;;;;;;14.73;35.20;102405.25;5052762;28;19916;-72
2022/03/18 12:19:58;;;;;;;;;;;;;;;14.92;34.61;102407.94;5052861;28;19912;-72
2022/03/18 12:22:42;;;;;;;;;;;;;;;14.81;33.16;102409.22;5052862;28;19912;-72
2022/03/18 12:25:27;;;;;;;;;;;;;;;14.98;33.19;102409.47;5052777;28;20395;-72
2022/03/18 12:28:11;;;;;;;;;;;;;;;15.16;33.86;102418.69;5052860;28;20284;-72
2022/03/18 12:31:12;;;;;;;;;;;;;;;15.12;32.70;102413.03;5052417;28;19917;-72
2022/03/18 12:34:00;;;;;;;;;;;;;;;15.25;33.80;102419.59;5052789;28;19913;-71
2022/03/18 12:36:45;;;;;;;;;;;;;;;15.18;32.38;102411.81;5052576;28;20292;-72
2022/03/18 12:39:30;;;;;;;;;;;;;;;15.05;31.99;102415.34;5052478;28;19912;-72
2022/03/18 12:42:17;;;;;;;;;;;;;;;15.16;33.13;102411.28;5052630;28;20283;-72
2022/03/18 12:45:02;;;;;;;;;;;;;;;15.18;32.55;102413.72;5052808;28;19917;-72
2022/03/18 12:47:46;;;;;;;;;;;;;;;15.17;33.45;102407.44;5052488;28;19912;-72
2022/03/18 12:50:33;;;;;;;;;;;;;;;15.17;32.83;102401.97;5052356;28;20383;-72
2022/03/18 12:53:20;;;;;;;;;;;;;;;15.11;34.64;102408.66;5052765;28;19912;-72
2022/03/18 12:56:05;;;;;;;;;;;;;;;14.94;33.56;102402.94;5043990;28;19912;-72
2022/03/18 12:58:57;;;;;;;;;;;;;;;15.15;34.14;102406.91;5052331;28;19908;-72
2022/03/18 13:01:53;;;;;;;;;;;;;;;14.98;33.01;102395.75;5052677;28;19916;-72
2022/03/18 13:04:41;;;;;;;;;;;;;;;15.08;33.52;102398.31;5044012;28;19912;-72
2022/03/18 13:07:27;;;;;;;;;;;;;;;15.20;35.28;102400.50;5052287;28;19913;-72
2022/03/18 13:10:14;;;;;;;;;;;;;;;15.21;36.65;102392.00;5052237;28;19917;-69
2022/03/18 13:13:06;;;;;;;;;;;;;;;15.44;37.18;102403.06;5043773;28;19920;-69
2022/03/18 13:16:00;;;;;;;;;;;;;;;15.32;34.64;102404.38;5052200;28;19912;-72
2022/03/18 13:18:48;;;;;;;;;;;;;;;15.46;34.09;102403.53;5052633;28;20275;-74
2022/03/18 13:21:39;;;;;;;;;;;;;;;15.12;32.34;102403.97;5038949;28;19913;-74
2022/03/18 13:24:24;;;;;;;;;;;;;;;14.81;32.81;102404.56;5052546;28;19916;-74
2022/03/18 13:27:10;;;;;;;;;;;;;;;14.77;33.29;102402.75;5051858;28;19917;-74
2022/03/18 13:33:00;;;;;;;;;;;;;;;14.69;33.33;102406.16;5052394;28;19913;-74
2022/03/18 13:35:46;;;;;;;;;;;;;;;14.49;32.92;102399.94;5038842;28;19920;-74
2022/03/18 13:38:36;;;;;;;;;;;;;;;14.53;33.35;102409.16;5052064;28;19913;-73
2022/03/18 13:41:20;;;;;;;;;;;;;;;14.61;33.71;102404.13;5052042;28;19913;-74
2022/03/18 13:44:05;;;;;;;;;;;;;;;14.67;33.78;102413.88;5055988;28;19913;-74
2022/03/18 13:46:56;;;;;;;;;;;;;;;14.63;33.56;102405.44;5045421;28;19913;-74
2022/03/18 13:49:57;;;;;;;;;;;;;;;14.68;33.52;102410.03;5055514;28;20291;-73
2022/03/18 13:52:42;;;;;;;;;;;;;;;14.64;33.27;102415.28;5055638;28;19912;-74
2022/03/18 13:55:28;;;;;;;;;;;;;;;14.65;33.78;102411.44;5056266;28;19912;-74
2022/03/18 13:58:23;;;;;;;;;;;;;;;14.58;33.86;102404.75;5055421;28;19913;-73
2022/03/18 14:01:09;;;;;;;;;;;;;;;14.55;33.80;102408.88;5055677;28;19912;-74
2022/03/18 14:03:57;;;;;;;;;;;;;;;14.59;33.78;102406.34;5055413;28;20314;-74